DLH9MT EDDF-EDDV
Flight info
| Callsign | DLH9MT |
|---|---|
| Flight time | 0h 36m |
| Altitude | 20000 |
| Route | MARUN3W/25C MARUN Y153 WRB WRB1X |
| Aircraft | A321/M-SDE3FGHIRWY/LB1 |
Departure
| Time | 2026-05-04 07:30 |
|---|---|
| Airport | Frankfurt Main Airport (EDDF) |
Arrival
| Time | 2026-05-04 08:06 |
|---|---|
| Airport | Hannover Airport (EDDV) |
| Time | Latitude | Longitude | Altitude | Speed | Heading |
|---|---|---|---|---|---|
| 2026-05-04 07:01 | 50.04431 | 8.56329 | 356 ft | 0 kts | 167° |
| 2026-05-04 07:18 | 50.04444 | 8.56324 | 364 ft | 4 kts | 168° |
| 2026-05-04 07:18 | 50.04466 | 8.56316 | 358 ft | 3 kts | 167° |
| 2026-05-04 07:18 | 50.04490 | 8.56317 | 358 ft | 4 kts | 214° |
| 2026-05-04 07:18 | 50.04507 | 8.56347 | 362 ft | 4 kts | 245° |
| 2026-05-04 07:19 | 50.04515 | 8.56378 | 360 ft | 0 kts | 249° |
| 2026-05-04 07:22 | 50.04504 | 8.56324 | 359 ft | 8 kts | 253° |
| 2026-05-04 07:22 | 50.04482 | 8.56235 | 362 ft | 10 kts | 251° |
| 2026-05-04 07:23 | 50.04457 | 8.56126 | 361 ft | 12 kts | 251° |
| 2026-05-04 07:23 | 50.04405 | 8.56027 | 356 ft | 12 kts | 195° |
| 2026-05-04 07:23 | 50.04320 | 8.56071 | 355 ft | 14 kts | 152° |
| 2026-05-04 07:23 | 50.04283 | 8.56199 | 360 ft | 13 kts | 118° |
| 2026-05-04 07:24 | 50.04198 | 8.56264 | 355 ft | 15 kts | 159° |
| 2026-05-04 07:24 | 50.04144 | 8.56355 | 361 ft | 11 kts | 80° |
| 2026-05-04 07:24 | 50.04173 | 8.56470 | 361 ft | 12 kts | 69° |
| 2026-05-04 07:24 | 50.04210 | 8.56624 | 361 ft | 18 kts | 69° |
| 2026-05-04 07:25 | 50.04259 | 8.56834 | 362 ft | 23 kts | 69° |
| 2026-05-04 07:26 | 50.04624 | 8.58360 | 370 ft | 19 kts | 70° |
| 2026-05-04 07:27 | 50.04654 | 8.58513 | 371 ft | 12 kts | 94° |
| 2026-05-04 07:27 | 50.04613 | 8.58577 | 371 ft | 7 kts | 158° |
| 2026-05-04 07:27 | 50.04597 | 8.58587 | 372 ft | 0 kts | 159° |
| 2026-05-04 07:28 | 50.04586 | 8.58593 | 371 ft | 5 kts | 159° |
| 2026-05-04 07:28 | 50.04547 | 8.58614 | 372 ft | 6 kts | 160° |
| 2026-05-04 07:29 | 50.04501 | 8.58606 | 371 ft | 8 kts | 212° |
| 2026-05-04 07:29 | 50.04470 | 8.58520 | 370 ft | 11 kts | 248° |
| 2026-05-04 07:29 | 50.04422 | 8.58326 | 372 ft | 46 kts | 249° |
| 2026-05-04 07:29 | 50.04212 | 8.57440 | 366 ft | 125 kts | 250° |
| 2026-05-04 07:30 | 50.03840 | 8.55899 | 572 ft | 164 kts | 249° |
| 2026-05-04 07:30 | 50.03436 | 8.54249 | 1392 ft | 164 kts | 248° |
| 2026-05-04 07:30 | 50.03029 | 8.52565 | 2070 ft | 173 kts | 249° |
| 2026-05-04 07:30 | 50.02565 | 8.50720 | 2437 ft | 193 kts | 242° |
| 2026-05-04 07:31 | 50.01701 | 8.49082 | 3053 ft | 200 kts | 219° |
| 2026-05-04 07:31 | 50.00456 | 8.48110 | 3795 ft | 204 kts | 195° |
| 2026-05-04 07:33 | 49.91011 | 8.43013 | 8599 ft | 246 kts | 244° |
| 2026-05-04 07:33 | 49.90624 | 8.40436 | 9436 ft | 250 kts | 270° |
| 2026-05-04 07:33 | 49.91083 | 8.37817 | 10225 ft | 259 kts | 298° |
| 2026-05-04 07:33 | 49.92363 | 8.35808 | 10946 ft | 271 kts | 327° |
| 2026-05-04 07:34 | 49.94119 | 8.34562 | 11439 ft | 288 kts | 334° |
| 2026-05-04 07:34 | 49.96044 | 8.33309 | 11671 ft | 312 kts | 334° |
| 2026-05-04 07:34 | 49.98121 | 8.31975 | 11890 ft | 333 kts | 335° |
| 2026-05-04 07:34 | 50.00301 | 8.30581 | 12401 ft | 343 kts | 335° |
| 2026-05-04 07:35 | 50.02576 | 8.29362 | 13052 ft | 351 kts | 345° |
| 2026-05-04 07:35 | 50.05022 | 8.28895 | 13736 ft | 358 kts | 358° |
| 2026-05-04 07:35 | 50.07518 | 8.29285 | 14341 ft | 365 kts | 11° |
| 2026-05-04 07:35 | 50.09961 | 8.30452 | 14940 ft | 370 kts | 18° |
| 2026-05-04 07:36 | 50.12409 | 8.31743 | 15554 ft | 374 kts | 18° |
| 2026-05-04 07:36 | 50.14883 | 8.33038 | 16205 ft | 377 kts | 17° |
| 2026-05-04 07:38 | 50.32910 | 8.42537 | 20103 ft | 403 kts | 17° |
| 2026-05-04 07:38 | 50.35575 | 8.43990 | 20636 ft | 407 kts | 18° |
| 2026-05-04 07:38 | 50.38256 | 8.45464 | 21135 ft | 411 kts | 18° |
| 2026-05-04 07:38 | 50.40966 | 8.46959 | 21624 ft | 414 kts | 18° |
| 2026-05-04 07:39 | 50.43697 | 8.48466 | 21947 ft | 418 kts | 18° |
| 2026-05-04 07:39 | 50.46423 | 8.49972 | 22016 ft | 408 kts | 17° |
| 2026-05-04 07:39 | 50.49081 | 8.51406 | 22018 ft | 401 kts | 16° |
| 2026-05-04 07:39 | 50.51734 | 8.52726 | 22018 ft | 399 kts | 15° |
| 2026-05-04 07:40 | 50.54392 | 8.53974 | 22018 ft | 398 kts | 14° |
| 2026-05-04 07:40 | 50.57052 | 8.55194 | 22031 ft | 398 kts | 14° |
| 2026-05-04 07:40 | 50.59719 | 8.56420 | 22017 ft | 399 kts | 14° |
| 2026-05-04 07:40 | 50.62381 | 8.57661 | 22018 ft | 399 kts | 14° |
| 2026-05-04 07:41 | 50.65040 | 8.58919 | 22015 ft | 399 kts | 14° |
| 2026-05-04 07:41 | 50.67698 | 8.60195 | 22017 ft | 399 kts | 15° |
| 2026-05-04 07:41 | 50.70354 | 8.61480 | 22016 ft | 399 kts | 15° |
| 2026-05-04 07:41 | 50.73009 | 8.62769 | 22016 ft | 399 kts | 15° |
| 2026-05-04 07:42 | 50.75666 | 8.64062 | 22011 ft | 399 kts | 15° |
| 2026-05-04 07:42 | 50.78321 | 8.65351 | 22011 ft | 399 kts | 15° |
| 2026-05-04 07:42 | 50.80944 | 8.66622 | 22012 ft | 399 kts | 15° |
| 2026-05-04 07:42 | 50.83619 | 8.68003 | 22009 ft | 400 kts | 17° |
| 2026-05-04 07:43 | 50.86192 | 8.69524 | 22010 ft | 400 kts | 19° |
| 2026-05-04 07:43 | 50.88776 | 8.71178 | 22011 ft | 401 kts | 21° |
| 2026-05-04 07:43 | 50.91349 | 8.72884 | 22012 ft | 401 kts | 21° |
| 2026-05-04 07:43 | 50.93919 | 8.74596 | 22013 ft | 401 kts | 21° |
| 2026-05-04 07:44 | 50.96499 | 8.76291 | 22013 ft | 401 kts | 20° |
| 2026-05-04 07:44 | 50.99114 | 8.77981 | 22016 ft | 401 kts | 20° |
| 2026-05-04 07:44 | 51.01700 | 8.79630 | 22021 ft | 401 kts | 20° |
| 2026-05-04 07:44 | 51.04289 | 8.81270 | 22020 ft | 401 kts | 20° |
| 2026-05-04 07:45 | 51.06877 | 8.82910 | 22017 ft | 401 kts | 20° |
| 2026-05-04 07:45 | 51.09468 | 8.84555 | 22017 ft | 401 kts | 20° |
| 2026-05-04 07:45 | 51.12056 | 8.86202 | 22017 ft | 401 kts | 20° |
| 2026-05-04 07:45 | 51.14642 | 8.87854 | 22016 ft | 401 kts | 20° |
| 2026-05-04 07:46 | 51.17230 | 8.89511 | 22016 ft | 400 kts | 20° |
| 2026-05-04 07:46 | 51.19815 | 8.91169 | 22015 ft | 401 kts | 20° |
| 2026-05-04 07:46 | 51.22399 | 8.92831 | 22013 ft | 400 kts | 20° |
| 2026-05-04 07:46 | 51.24982 | 8.94496 | 22016 ft | 400 kts | 20° |
| 2026-05-04 07:47 | 51.27567 | 8.96159 | 22016 ft | 401 kts | 20° |
| 2026-05-04 07:47 | 51.30150 | 8.97825 | 22012 ft | 400 kts | 20° |
| 2026-05-04 07:47 | 51.32732 | 8.99498 | 22008 ft | 400 kts | 20° |
| 2026-05-04 07:49 | 51.50229 | 9.10916 | 20335 ft | 372 kts | 24° |
| 2026-05-04 07:49 | 51.52460 | 9.13000 | 19927 ft | 370 kts | 31° |
| 2026-05-04 07:49 | 51.54622 | 9.15210 | 19516 ft | 367 kts | 31° |
| 2026-05-04 07:50 | 51.56763 | 9.17398 | 19111 ft | 363 kts | 31° |
| 2026-05-04 07:50 | 51.58886 | 9.19568 | 18697 ft | 360 kts | 31° |
| 2026-05-04 07:50 | 51.60993 | 9.21719 | 18299 ft | 357 kts | 30° |
| 2026-05-04 07:50 | 51.63083 | 9.23851 | 17866 ft | 354 kts | 31° |
| 2026-05-04 07:51 | 51.65147 | 9.25962 | 17466 ft | 349 kts | 31° |
| 2026-05-04 07:51 | 51.67183 | 9.28049 | 17064 ft | 345 kts | 30° |
| 2026-05-04 07:51 | 51.69193 | 9.30115 | 16685 ft | 341 kts | 31° |
| 2026-05-04 07:51 | 51.71182 | 9.32164 | 16303 ft | 337 kts | 30° |
| 2026-05-04 07:52 | 51.73149 | 9.34193 | 15932 ft | 334 kts | 30° |
| 2026-05-04 07:52 | 51.75097 | 9.36201 | 15552 ft | 331 kts | 30° |
| 2026-05-04 07:52 | 51.77028 | 9.38190 | 15186 ft | 328 kts | 30° |
| 2026-05-04 07:52 | 51.78942 | 9.40164 | 14815 ft | 325 kts | 30° |
| 2026-05-04 07:53 | 51.80842 | 9.42130 | 14445 ft | 323 kts | 30° |
| 2026-05-04 07:54 | 51.93697 | 9.55462 | 11911 ft | 304 kts | 30° |
| 2026-05-04 07:55 | 51.95440 | 9.57276 | 11568 ft | 300 kts | 30° |
| 2026-05-04 07:55 | 51.97186 | 9.59100 | 11225 ft | 298 kts | 30° |
| 2026-05-04 07:55 | 51.98920 | 9.60915 | 10882 ft | 296 kts | 30° |
| 2026-05-04 07:55 | 52.00641 | 9.62718 | 10541 ft | 293 kts | 30° |
| 2026-05-04 07:56 | 52.02350 | 9.64505 | 10202 ft | 291 kts | 30° |
| 2026-05-04 07:56 | 52.04050 | 9.66283 | 9865 ft | 290 kts | 30° |
| 2026-05-04 07:56 | 52.05744 | 9.68054 | 9498 ft | 288 kts | 30° |
| 2026-05-04 07:56 | 52.07422 | 9.69808 | 9156 ft | 285 kts | 30° |
| 2026-05-04 07:57 | 52.09079 | 9.71549 | 8820 ft | 282 kts | 31° |
| 2026-05-04 07:57 | 52.10718 | 9.73276 | 8492 ft | 279 kts | 31° |
| 2026-05-04 07:57 | 52.12339 | 9.74989 | 8173 ft | 277 kts | 30° |
| 2026-05-04 07:57 | 52.13950 | 9.76686 | 7831 ft | 275 kts | 30° |
| 2026-05-04 07:58 | 52.15549 | 9.78370 | 7514 ft | 273 kts | 30° |
| 2026-05-04 07:58 | 52.17135 | 9.80038 | 7186 ft | 271 kts | 30° |
| 2026-05-04 07:58 | 52.18712 | 9.81697 | 6867 ft | 269 kts | 30° |
| 2026-05-04 07:58 | 52.20276 | 9.83347 | 6533 ft | 267 kts | 30° |
| 2026-05-04 07:59 | 52.21831 | 9.84991 | 6216 ft | 266 kts | 31° |
| 2026-05-04 07:59 | 52.23376 | 9.86623 | 5887 ft | 263 kts | 31° |
| 2026-05-04 07:59 | 52.24955 | 9.88065 | 5573 ft | 258 kts | 20° |
| 2026-05-04 07:59 | 52.26659 | 9.88905 | 5252 ft | 255 kts | 7° |
| 2026-05-04 08:00 | 52.28401 | 9.89414 | 4935 ft | 255 kts | 7° |
| 2026-05-04 08:00 | 52.30164 | 9.89944 | 4613 ft | 261 kts | 8° |
| 2026-05-04 08:00 | 52.31983 | 9.90500 | 4270 ft | 270 kts | 8° |
| 2026-05-04 08:02 | 52.44068 | 9.92607 | 2923 ft | 199 kts | 315° |
| 2026-05-04 08:02 | 52.44776 | 9.90786 | 2609 ft | 187 kts | 284° |
| 2026-05-04 08:02 | 52.44890 | 9.88736 | 2337 ft | 176 kts | 272° |
| 2026-05-04 08:03 | 52.44949 | 9.86777 | 2098 ft | 168 kts | 272° |
| 2026-05-04 08:03 | 52.45002 | 9.84987 | 1891 ft | 146 kts | 272° |
| 2026-05-04 08:03 | 52.45050 | 9.83392 | 1705 ft | 136 kts | 272° |
| 2026-05-04 08:03 | 52.45094 | 9.81863 | 1500 ft | 133 kts | 272° |
| 2026-05-04 08:04 | 52.45138 | 9.80364 | 1331 ft | 131 kts | 272° |
| 2026-05-04 08:04 | 52.45180 | 9.78887 | 1156 ft | 130 kts | 273° |
| 2026-05-04 08:04 | 52.45216 | 9.77416 | 970 ft | 129 kts | 272° |
| 2026-05-04 08:04 | 52.45261 | 9.75950 | 794 ft | 129 kts | 272° |
| 2026-05-04 08:05 | 52.45304 | 9.74472 | 603 ft | 132 kts | 271° |
| 2026-05-04 08:05 | 52.45348 | 9.72982 | 455 ft | 130 kts | 271° |
| 2026-05-04 08:05 | 52.45391 | 9.71517 | 278 ft | 129 kts | 272° |
| 2026-05-04 08:05 | 52.45435 | 9.70072 | 196 ft | 118 kts | 271° |
| 2026-05-04 08:06 | 52.45463 | 9.68912 | 184 ft | 80 kts | 272° |
| 2026-05-04 08:06 | 52.45477 | 9.68363 | 181 ft | 10 kts | 270° |
| 2026-05-04 08:06 | 52.45490 | 9.68267 | 181 ft | 7 kts | 304° |
| 2026-05-04 08:06 | 52.45537 | 9.68252 | 181 ft | 9 kts | 1° |
| 2026-05-04 08:08 | 52.45717 | 9.69151 | 179 ft | 12 kts | 11° |
| 2026-05-04 08:08 | 52.45782 | 9.69212 | 179 ft | 8 kts | 44° |
| 2026-05-04 08:10 | 52.45841 | 9.69316 | 179 ft | 0 kts | 47° |